Time;durP1;ratioP1;P1;durP2;ratioP2;P2;SDS_P1;SDS_P2;PMS_P1;PMS_P2;Temp;Humidity;BMP_temperature;BMP_pressure;BME280_temperature;BME280_humidity;BME280_pressure;Samples;Min_cycle;Max_cycle;Signal;HPM_P1;HPM_P2
2023/05/03 00:01:31;;;;;;;9.25;5.05;;;;;;;3.16;100.00;102772.28;5116014;28;20106;-47
2023/05/03 00:03:57;;;;;;;9.25;4.90;;;;;;;3.02;100.00;102777.78;5115658;28;20395;-47
2023/05/03 00:06:22;;;;;;;11.80;5.63;;;;;;;3.10;100.00;102771.78;5115094;28;20040;-49
2023/05/03 00:08:47;;;;;;;8.23;5.18;;;;;;;2.96;100.00;102776.47;5116309;28;20035;-51
2023/05/03 00:11:14;;;;;;;10.10;4.90;;;;;;;3.00;100.00;102764.03;5115623;28;20050;-50
2023/05/03 00:13:40;;;;;;;7.20;4.97;;;;;;;2.94;100.00;102772.91;5115587;28;20031;-47
2023/05/03 00:16:05;;;;;;;10.88;5.28;;;;;;;2.90;100.00;102773.38;5115830;28;20020;-48
2023/05/03 00:18:30;;;;;;;8.75;5.40;;;;;;;2.84;100.00;102772.81;5115228;28;20539;-48
2023/05/03 00:20:58;;;;;;;11.38;5.30;;;;;;;2.80;100.00;102776.72;5115876;28;20035;-48
2023/05/03 00:23:24;;;;;;;12.07;5.95;;;;;;;2.82;100.00;102773.44;5115013;28;20467;-50
2023/05/03 00:25:57;;;;;;;10.10;5.45;;;;;;;2.72;100.00;102770.00;5115779;28;20036;-48
2023/05/03 00:28:23;;;;;;;11.18;5.80;;;;;;;2.75;100.00;102770.31;5115583;28;20107;-48
2023/05/03 00:30:48;;;;;;;9.45;5.72;;;;;;;2.75;100.00;102777.03;5115205;28;20024;-48
2023/05/03 00:33:15;;;;;;;10.00;5.00;;;;;;;2.77;100.00;102776.44;5115663;28;20118;-51
2023/05/03 00:35:41;;;;;;;9.60;5.53;;;;;;;2.74;100.00;102775.28;5115583;28;20371;-52
2023/05/03 00:38:06;;;;;;;14.07;5.30;;;;;;;2.69;100.00;102777.38;5114781;28;20467;-51
2023/05/03 00:40:31;;;;;;;11.70;5.60;;;;;;;2.78;100.00;102772.25;5114876;28;20023;-48
2023/05/03 00:42:56;;;;;;;12.25;5.72;;;;;;;2.66;100.00;102771.09;5115620;28;20043;-47
2023/05/03 00:45:22;;;;;;;9.88;5.80;;;;;;;2.71;100.00;102780.06;5114652;28;20024;-52
2023/05/03 00:47:48;;;;;;;9.55;5.53;;;;;;;2.71;100.00;102775.88;5115165;28;20091;-48
2023/05/03 00:50:13;;;;;;;7.15;5.20;;;;;;;2.66;100.00;102786.38;5115583;28;20020;-50
2023/05/03 00:52:39;;;;;;;9.43;5.70;;;;;;;2.61;100.00;102781.75;5114602;28;20047;-47
2023/05/03 00:55:06;;;;;;;7.47;5.40;;;;;;;2.49;100.00;102772.97;5115019;28;20489;-48
2023/05/03 00:57:31;;;;;;;10.17;5.50;;;;;;;2.50;100.00;102773.88;5114994;28;20027;-48
2023/05/03 00:59:57;;;;;;;8.88;5.38;;;;;;;2.46;100.00;102773.59;5114549;28;20103;-50
2023/05/03 01:02:23;;;;;;;9.63;5.88;;;;;;;2.44;100.00;102766.56;5113733;28;20050;-49
2023/05/03 01:04:50;;;;;;;11.65;6.40;;;;;;;2.37;100.00;102767.63;5115498;28;20455;-47
2023/05/03 01:07:34;;;;;;;9.95;6.18;;;;;;;2.37;100.00;102766.75;5114150;28;20055;-48
2023/05/03 01:10:06;;;;;;;11.32;6.28;;;;;;;2.33;100.00;102764.69;5114671;28;20487;-47
2023/05/03 01:13:08;;;;;;;10.20;6.40;;;;;;;2.32;100.00;102763.75;5113986;28;20098;-47
2023/05/03 01:15:52;;;;;;;10.50;6.30;;;;;;;2.25;100.00;102767.38;5114424;28;20031;-48
2023/05/03 01:18:43;;;;;;;9.38;6.03;;;;;;;2.24;100.00;102768.13;5114448;28;20028;-49
2023/05/03 01:21:11;;;;;;;12.27;6.18;;;;;;;2.22;100.00;102772.19;5114276;28;20028;-48
2023/05/03 01:23:45;;;;;;;12.88;5.95;;;;;;;2.26;100.00;102764.09;5114455;28;20030;-47
2023/05/03 01:26:16;;;;;;;11.85;6.55;;;;;;;2.20;100.00;102773.69;5114811;28;20038;-48
2023/05/03 01:28:41;;;;;;;11.70;5.90;;;;;;;2.18;100.00;102767.53;5114028;28;20042;-47
2023/05/03 01:31:07;;;;;;;9.80;5.65;;;;;;;2.13;100.00;102777.31;5114273;28;20106;-48
2023/05/03 01:34:14;;;;;;;10.65;6.47;;;;;;;2.17;100.00;102785.22;5113443;28;20024;-47
2023/05/03 01:36:41;;;;;;;;;;;;;;;2.25;100.00;102782.66;5086467;28;20035;-48
2023/05/03 01:39:13;;;;;;;10.20;6.10;;;;;;;2.18;100.00;102780.25;5114493;28;20006;-51
2023/05/03 01:41:41;;;;;;;10.18;6.18;;;;;;;2.21;100.00;102780.56;5113411;28;20436;-48
2023/05/03 01:44:09;;;;;;;11.25;6.75;;;;;;;2.35;100.00;102778.44;5114074;28;20016;-49
2023/05/03 01:46:41;;;;;;;12.10;6.18;;;;;;;2.22;100.00;102781.47;5113893;28;20494;-52
2023/05/03 01:49:06;;;;;;;11.43;6.60;;;;;;;2.20;100.00;102781.31;5113756;28;20099;-49
2023/05/03 01:51:31;;;;;;;10.38;6.55;;;;;;;2.21;100.00;102777.13;5113816;28;20444;-48
2023/05/03 01:53:56;;;;;;;12.82;7.60;;;;;;;2.24;100.00;102769.78;5114150;28;20072;-48
2023/05/03 01:56:22;;;;;;;14.10;7.50;;;;;;;2.20;100.00;102771.16;5113165;28;20394;-52
2023/05/03 01:58:47;;;;;;;10.43;6.97;;;;;;;2.14;100.00;102778.19;5113924;28;20129;-51
2023/05/03 02:01:12;;;;;;;10.85;7.40;;;;;;;2.15;100.00;102780.00;5114237;28;20035;-47
2023/05/03 02:03:37;;;;;;;11.88;7.82;;;;;;;2.12;100.00;102774.63;5113243;28;20400;-48
2023/05/03 02:06:03;;;;;;;11.15;7.00;;;;;;;2.18;100.00;102775.19;5113902;28;20019;-50
2023/05/03 02:08:28;;;;;;;12.32;6.88;;;;;;;2.22;100.00;102777.28;5113371;28;20558;-49
2023/05/03 02:10:53;;;;;;;14.68;7.18;;;;;;;2.14;100.00;102783.28;5113339;28;20019;-47
2023/05/03 02:13:19;;;;;;;14.82;7.72;;;;;;;2.11;100.00;102777.91;5113388;28;20035;-48
2023/05/03 02:15:44;;;;;;;10.90;7.03;;;;;;;2.07;100.00;102783.47;5112901;28;20521;-47
2023/05/03 02:18:10;;;;;;;12.68;7.53;;;;;;;2.21;100.00;102778.03;5113509;28;20062;-47
2023/05/03 02:20:36;;;;;;;11.02;7.05;;;;;;;2.07;100.00;102770.75;5113323;28;20035;-49
2023/05/03 02:23:05;;;;;;;10.40;7.05;;;;;;;2.04;100.00;102765.34;5113099;28;20027;-48
2023/05/03 02:25:30;;;;;;;11.68;7.00;;;;;;;1.96;100.00;102768.06;5113238;28;20046;-50
2023/05/03 02:27:56;;;;;;;14.65;7.20;;;;;;;1.93;100.00;102766.88;5113796;28;20367;-48
2023/05/03 02:30:21;;;;;;;11.52;6.85;;;;;;;1.88;100.00;102760.47;5112782;28;20047;-48
2023/05/03 02:32:46;;;;;;;12.32;7.30;;;;;;;1.87;100.00;102762.09;5113264;28;20028;-47
2023/05/03 02:35:11;;;;;;;10.90;6.72;;;;;;;1.98;100.00;102763.13;5113543;28;20028;-47
2023/05/03 02:37:37;;;;;;;15.07;7.38;;;;;;;2.06;100.00;102752.03;5112676;28;20032;-48
2023/05/03 02:40:04;;;;;;;11.20;6.75;;;;;;;2.00;100.00;102753.09;5113076;28;20019;-50
2023/05/03 02:42:29;;;;;;;13.25;7.40;;;;;;;1.93;100.00;102744.88;5113354;28;20034;-48
2023/05/03 02:44:55;;;;;;;10.52;6.78;;;;;;;2.02;100.00;102741.44;5113066;28;20021;-48
2023/05/03 02:47:20;;;;;;;13.43;7.55;;;;;;;1.95;100.00;102734.84;5112810;28;20024;-48
2023/05/03 02:49:47;;;;;;;9.45;7.10;;;;;;;1.88;100.00;102728.28;5113290;28;20025;-48
2023/05/03 02:52:12;;;;;;;12.25;6.97;;;;;;;1.93;100.00;102726.19;5112619;28;20378;-48
2023/05/03 02:54:37;;;;;;;10.90;7.07;;;;;;;1.87;100.00;102716.31;5112693;28;20020;-50
2023/05/03 02:57:03;;;;;;;14.35;7.57;;;;;;;1.93;100.00;102714.38;5113092;28;20111;-50
2023/05/03 02:59:28;;;;;;;12.68;7.43;;;;;;;1.91;100.00;102713.34;5112320;28;20023;-47
2023/05/03 03:01:53;;;;;;;14.43;7.53;;;;;;;1.86;100.00;102706.94;5113110;28;20490;-51
2023/05/03 03:04:19;;;;;;;10.68;6.93;;;;;;;1.93;100.00;102710.94;5112878;28;20467;-49
2023/05/03 03:06:44;;;;;;;14.32;8.02;;;;;;;1.92;100.00;102715.09;5112440;28;20039;-48
2023/05/03 03:09:11;;;;;;;10.25;7.32;;;;;;;1.95;100.00;102723.03;5112794;28;20034;-47
2023/05/03 03:11:36;;;;;;;11.88;7.47;;;;;;;1.89;100.00;102732.63;5112967;28;20076;-48
2023/05/03 03:14:02;;;;;;;14.45;7.45;;;;;;;1.81;100.00;102738.66;5112736;28;20028;-50
2023/05/03 03:16:27;;;;;;;13.23;7.63;;;;;;;1.77;100.00;102739.06;5112547;28;20032;-47
2023/05/03 03:18:52;;;;;;;13.77;7.32;;;;;;;1.73;100.00;102737.00;5112908;28;20032;-49
2023/05/03 03:21:18;;;;;;;14.43;7.65;;;;;;;1.77;100.00;102731.44;5111978;28;20031;-47
2023/05/03 03:23:43;;;;;;;14.13;8.77;;;;;;;1.79;100.00;102732.50;5112811;28;20029;-48
2023/05/03 03:26:08;;;;;;;11.50;7.60;;;;;;;1.75;100.00;102743.13;5093144;28;20109;-47
2023/05/03 03:28:33;;;;;;;11.88;8.40;;;;;;;1.72;100.00;102747.94;5096239;28;20020;-47
2023/05/03 03:30:59;;;;;;;12.27;7.95;;;;;;;1.70;100.00;102750.31;5096521;28;20029;-49
2023/05/03 03:33:24;;;;;;;13.48;7.97;;;;;;;1.69;100.00;102752.72;5095609;28;20383;-49
2023/05/03 03:35:50;;;;;;;14.05;8.45;;;;;;;1.66;100.00;102750.75;5096219;28;20024;-50
2023/05/03 03:38:15;;;;;;;13.48;8.68;;;;;;;1.76;100.00;102743.28;5096046;28;20031;-48
2023/05/03 03:40:40;;;;;;;15.02;8.70;;;;;;;1.78;100.00;102745.97;5095750;28;20107;-51
2023/05/03 03:43:05;;;;;;;16.05;8.20;;;;;;;1.78;100.00;102736.69;5096281;28;20028;-49
2023/05/03 03:45:31;;;;;;;15.30;8.70;;;;;;;1.78;100.00;102736.69;5096151;28;20020;-47
2023/05/03 03:47:56;;;;;;;14.48;8.45;;;;;;;1.84;100.00;102738.03;5096065;28;20388;-49
2023/05/03 03:50:23;;;;;;;13.02;8.07;;;;;;;1.86;100.00;102736.53;5095692;28;20104;-49
2023/05/03 03:52:48;;;;;;;14.57;9.00;;;;;;;1.90;100.00;102730.97;5096076;28;20031;-48
2023/05/03 03:55:14;;;;;;;14.02;9.00;;;;;;;1.79;100.00;102733.38;5095387;28;20032;-48
2023/05/03 03:57:39;;;;;;;13.23;8.35;;;;;;;1.79;100.00;102729.97;5095509;28;20115;-49
2023/05/03 04:00:10;;;;;;;15.57;8.27;;;;;;;1.83;100.00;102734.59;5095981;28;20024;-49
2023/05/03 04:02:36;;;;;;;15.30;8.88;;;;;;;1.72;100.00;102737.78;5095095;28;20078;-51
2023/05/03 04:05:01;;;;;;;12.18;8.93;;;;;;;1.76;100.00;102744.94;5095591;28;20032;-52
2023/05/03 04:07:26;;;;;;;13.45;8.70;;;;;;;1.71;100.00;102739.41;5095292;28;20040;-52
2023/05/03 04:09:52;;;;;;;13.77;8.60;;;;;;;1.67;100.00;102747.47;5095195;28;20031;-52
2023/05/03 04:12:17;;;;;;;16.63;8.95;;;;;;;1.54;100.00;102742.84;5095122;28;20065;-53
2023/05/03 04:14:42;;;;;;;12.55;8.88;;;;;;;1.57;100.00;102749.88;5095770;28;20035;-49
2023/05/03 04:17:08;;;;;;;16.58;9.00;;;;;;;1.55;100.00;102757.38;5095053;28;20035;-51
2023/05/03 04:19:34;;;;;;;12.40;8.80;;;;;;;1.51;100.00;102751.81;5095034;28;20103;-52
2023/05/03 04:21:59;;;;;;;13.27;9.45;;;;;;;1.57;100.00;102750.75;5095558;28;20499;-52
2023/05/03 04:24:26;;;;;;;13.13;9.40;;;;;;;1.51;100.00;102755.28;5094368;28;20024;-52
2023/05/03 04:26:51;;;;;;;12.57;9.07;;;;;;;1.47;100.00;102753.16;5095612;28;20028;-52
2023/05/03 04:29:18;;;;;;;14.68;9.30;;;;;;;1.48;100.00;102755.88;5095201;28;20028;-50
2023/05/03 04:31:44;;;;;;;16.48;9.90;;;;;;;1.53;100.00;102758.84;5095479;28;20091;-51
2023/05/03 04:34:13;;;;;;;14.88;10.00;;;;;;;1.49;100.00;102759.31;5095344;28;20075;-52
2023/05/03 04:36:40;;;;;;;13.98;9.68;;;;;;;1.43;100.00;102761.25;5094205;28;20031;-52
2023/05/03 04:39:06;;;;;;;15.53;9.47;;;;;;;1.39;100.00;102764.25;5094863;28;20490;-52
2023/05/03 04:41:32;;;;;;;14.65;10.38;;;;;;;1.42;100.00;102765.44;5095065;28;20274;-52
2023/05/03 04:43:57;;;;;;;15.27;10.68;;;;;;;1.50;100.00;102773.81;5094806;28;20363;-49
2023/05/03 04:46:22;;;;;;;15.20;10.07;;;;;;;1.45;100.00;102780.09;5094854;28;20031;-50
2023/05/03 04:48:47;;;;;;;14.98;9.98;;;;;;;1.49;100.00;102777.09;5094963;28;20024;-53
2023/05/03 04:51:13;;;;;;;16.75;10.75;;;;;;;1.51;100.00;102795.94;5094379;28;20043;-51
2023/05/03 04:53:39;;;;;;;15.52;11.30;;;;;;;1.56;100.00;102798.91;5094632;28;20073;-50
2023/05/03 04:56:05;;;;;;;18.45;11.07;;;;;;;1.59;100.00;102810.28;5095097;28;20027;-52
2023/05/03 04:58:30;;;;;;;18.25;11.23;;;;;;;1.62;100.00;102800.41;5094022;28;20039;-50
2023/05/03 05:00:56;;;;;;;18.98;11.70;;;;;;;1.71;100.00;102804.59;5094497;28;20073;-52
2023/05/03 05:03:21;;;;;;;15.40;10.40;;;;;;;1.75;100.00;102809.22;5094476;28;20027;-50
2023/05/03 05:05:46;;;;;;;19.60;11.20;;;;;;;1.80;100.00;102813.13;5094060;28;20111;-51
2023/05/03 05:08:11;;;;;;;16.83;11.25;;;;;;;1.85;100.00;102817.00;5094271;28;20376;-52
2023/05/03 05:10:39;;;;;;;18.75;11.38;;;;;;;1.91;100.00;102815.06;5094508;28;20074;-51
2023/05/03 05:13:05;;;;;;;;;;;;;;;2.00;100.00;102821.75;5094493;28;20020;-52
2023/05/03 05:15:30;;;;;;;18.73;11.07;;;;;;;2.09;100.00;102822.63;5094049;28;19912;-51
2023/05/03 05:17:55;;;;;;;16.73;11.40;;;;;;;2.15;100.00;102820.69;5094259;28;20081;-51
2023/05/03 05:20:21;;;;;;;19.40;11.85;;;;;;;2.25;100.00;102817.38;5093554;28;20073;-53
2023/05/03 05:22:46;;;;;;;16.67;10.93;;;;;;;2.33;100.00;102808.81;5094058;28;20016;-49
2023/05/03 05:25:12;;;;;;;16.60;11.20;;;;;;;2.42;100.00;102816.44;5094565;28;20024;-52
2023/05/03 05:27:37;;;;;;;17.70;11.50;;;;;;;2.55;100.00;102818.50;5093334;28;20046;-53
2023/05/03 05:30:03;;;;;;;16.33;10.98;;;;;;;2.64;100.00;102814.25;5094317;28;20390;-52
2023/05/03 05:32:29;;;;;;;18.67;11.13;;;;;;;2.74;100.00;102821.13;5093827;28;20024;-51
2023/05/03 05:34:54;;;;;;;20.35;11.15;;;;;;;2.84;100.00;102816.13;5093315;28;20051;-51
2023/05/03 05:37:21;;;;;;;19.30;10.82;;;;;;;2.99;100.00;102818.28;5093590;28;20032;-52
2023/05/03 05:39:47;;;;;;;17.70;10.00;;;;;;;3.06;100.00;102819.00;5093742;28;20095;-50
2023/05/03 05:42:12;;;;;;;17.48;10.82;;;;;;;3.19;100.00;102823.56;5093883;28;20103;-51
2023/05/03 05:44:37;;;;;;;15.77;10.27;;;;;;;3.28;100.00;102813.31;5093521;28;20463;-51
2023/05/03 05:47:02;;;;;;;19.48;10.40;;;;;;;3.41;100.00;102815.31;5093324;28;20107;-52
2023/05/03 05:49:28;;;;;;;14.57;10.23;;;;;;;3.51;100.00;102815.41;5092657;28;20089;-53
2023/05/03 05:51:53;;;;;;;14.70;10.65;;;;;;;3.63;100.00;102815.59;5093702;28;20032;-52
2023/05/03 05:54:18;;;;;;;15.02;10.55;;;;;;;3.73;100.00;102814.75;5092999;28;20028;-51
2023/05/03 05:56:44;;;;;;;19.63;10.05;;;;;;;3.84;100.00;102814.03;5093669;28;20035;-51
2023/05/03 05:59:10;;;;;;;16.27;8.88;;;;;;;3.95;100.00;102823.56;5093689;28;20040;-50
2023/05/03 06:01:35;;;;;;;17.05;9.13;;;;;;;4.11;100.00;102819.78;5092850;28;20134;-51
2023/05/03 06:04:00;;;;;;;15.43;9.25;;;;;;;4.24;100.00;102825.19;5093396;28;20023;-51
2023/05/03 06:06:26;;;;;;;14.80;8.88;;;;;;;4.34;100.00;102824.34;5092849;28;20472;-51
2023/05/03 06:08:51;;;;;;;16.58;8.98;;;;;;;4.47;100.00;102823.75;5092935;28;20020;-52
2023/05/03 06:11:17;;;;;;;12.93;8.55;;;;;;;4.64;100.00;102826.88;5093147;28;20094;-52
2023/05/03 06:13:42;;;;;;;16.30;8.38;;;;;;;4.75;100.00;102823.56;5093487;28;20024;-52
2023/05/03 06:16:08;;;;;;;15.68;8.48;;;;;;;4.89;100.00;102819.63;5092777;28;20024;-52
2023/05/03 06:18:33;;;;;;;16.17;8.73;;;;;;;5.02;100.00;102816.44;5092790;28;20093;-51
2023/05/03 06:20:58;;;;;;;14.38;7.22;;;;;;;5.11;100.00;102814.66;5093221;28;20031;-51
2023/05/03 06:23:23;;;;;;;14.95;7.35;;;;;;;5.22;100.00;102811.31;5092625;28;20016;-51
2023/05/03 06:25:49;;;;;;;18.60;7.78;;;;;;;5.32;99.68;102807.88;5092851;28;20024;-52
2023/05/03 06:28:14;;;;;;;12.00;7.15;;;;;;;5.42;98.17;102806.97;5093335;28;20035;-51
2023/05/03 06:30:40;;;;;;;13.23;7.60;;;;;;;5.52;99.03;102812.06;5092180;28;20016;-52
2023/05/03 06:33:05;;;;;;;13.27;7.50;;;;;;;5.60;98.58;102818.72;5093155;28;20443;-51
2023/05/03 06:35:31;;;;;;;12.45;8.25;;;;;;;5.76;98.98;102809.72;5092778;28;20471;-53
2023/05/03 06:37:56;;;;;;;14.20;8.20;;;;;;;5.83;97.54;102806.00;5092358;28;20032;-53
2023/05/03 06:40:24;;;;;;;15.90;7.85;;;;;;;5.90;96.69;102804.06;5092734;28;20141;-52
2023/05/03 06:42:49;;;;;;;14.02;7.97;;;;;;;6.01;97.45;102797.25;5093227;28;20098;-52
2023/05/03 06:45:15;;;;;;;14.32;8.13;;;;;;;6.08;97.19;102798.63;5092374;28;20012;-52
2023/05/03 06:47:41;;;;;;;10.88;7.75;;;;;;;6.16;96.94;102802.69;5093017;28;20375;-52
2023/05/03 06:50:07;;;;;;;13.00;7.75;;;;;;;6.28;95.32;102804.44;5092233;28;20416;-52
2023/05/03 06:52:33;;;;;;;13.90;7.72;;;;;;;6.41;96.02;102791.81;5092514;28;20032;-51
2023/05/03 06:54:58;;;;;;;14.00;8.15;;;;;;;6.47;95.58;102799.06;5092934;28;20028;-52
2023/05/03 06:57:24;;;;;;;13.30;7.28;;;;;;;6.57;93.50;102791.31;5091876;28;20380;-52
2023/05/03 06:59:49;;;;;;;13.00;7.75;;;;;;;6.65;91.37;102794.47;5092686;28;20051;-51
2023/05/03 07:02:14;;;;;;;11.05;7.25;;;;;;;6.70;91.36;102799.19;5095976;28;20471;-52
2023/05/03 07:04:40;;;;;;;12.85;7.68;;;;;;;6.70;89.76;102790.59;5096201;28;20038;-52
2023/05/03 07:07:05;;;;;;;14.35;7.30;;;;;;;6.80;88.11;102795.66;5096755;28;20507;-51
2023/05/03 07:09:31;;;;;;;11.38;6.72;;;;;;;6.97;89.64;102796.06;5096626;28;20020;-52
2023/05/03 07:11:56;;;;;;;16.10;6.88;;;;;;;7.03;89.07;102806.78;5096401;28;20020;-50
2023/05/03 07:14:22;;;;;;;12.68;6.53;;;;;;;7.14;88.19;102799.88;5096339;28;20039;-52
2023/05/03 07:16:47;;;;;;;13.60;7.47;;;;;;;7.17;86.76;102803.56;5096875;28;20361;-52
2023/05/03 07:19:13;;;;;;;11.30;6.90;;;;;;;7.28;87.10;102800.91;5096021;28;20492;-51
2023/05/03 07:21:38;;;;;;;12.02;6.95;;;;;;;7.37;87.37;102796.47;5095980;28;20027;-52
2023/05/03 07:24:04;;;;;;;11.63;7.35;;;;;;;7.53;88.62;102804.53;5096864;28;20034;-52
2023/05/03 07:26:29;;;;;;;12.57;6.88;;;;;;;7.66;88.02;102797.75;5095776;28;20020;-52
2023/05/03 07:28:54;;;;;;;12.68;7.25;;;;;;;7.91;87.62;102800.38;5096290;28;20413;-52
2023/05/03 07:31:22;;;;;;;10.32;6.30;;;;;;;7.91;85.48;102797.81;5096238;28;20024;-51
2023/05/03 07:33:47;;;;;;;;;;;;;;;8.03;89.04;102795.22;5095989;28;20024;-52
2023/05/03 07:36:13;;;;;;;12.57;6.43;;;;;;;8.18;84.81;102793.75;5096557;28;19916;-52
2023/05/03 07:38:38;;;;;;;10.00;6.75;;;;;;;8.24;83.76;102794.19;5095965;28;20339;-51
2023/05/03 07:41:03;;;;;;;11.95;6.55;;;;;;;8.34;83.05;102792.25;5095649;28;20030;-51
2023/05/03 07:43:29;;;;;;;13.50;6.50;;;;;;;8.42;82.78;102778.28;5096058;28;20024;-52
2023/05/03 07:45:55;;;;;;;12.68;6.70;;;;;;;8.45;80.44;102783.63;5096254;28;20028;-51
2023/05/03 07:48:20;;;;;;;10.02;6.05;;;;;;;8.62;80.49;102784.81;5095143;28;20085;-52
2023/05/03 07:50:45;;;;;;;12.20;6.35;;;;;;;8.62;78.84;102771.09;5096079;28;20035;-48
2023/05/03 07:53:13;;;;;;;13.80;6.40;;;;;;;8.88;79.58;102767.72;5096314;28;20056;-51
2023/05/03 07:55:38;;;;;;;;;;;;;;;8.94;83.53;102759.53;5095544;28;20028;-51
2023/05/03 07:58:04;;;;;;;11.30;6.47;;;;;;;9.10;79.89;102757.16;5096072;28;19919;-53
2023/05/03 08:00:30;;;;;;;10.00;5.72;;;;;;;9.14;73.75;102753.13;5095062;28;20027;-53
2023/05/03 08:02:55;;;;;;;11.25;5.50;;;;;;;9.11;73.89;102758.09;5095817;28;20106;-52
2023/05/03 08:05:22;;;;;;;10.38;4.85;;;;;;;9.11;71.66;102747.78;5095817;28;20028;-52
2023/05/03 08:07:51;;;;;;;14.45;5.70;;;;;;;9.26;73.96;102742.75;5095236;28;20075;-51
2023/05/03 08:10:16;;;;;;;9.00;5.30;;;;;;;9.20;69.99;102745.81;5095331;28;20040;-51
2023/05/03 08:12:42;;;;;;;9.30;5.45;;;;;;;9.29;73.01;102742.97;5095199;28;20080;-52
2023/05/03 08:15:08;;;;;;;9.95;5.40;;;;;;;9.45;71.62;102730.31;5095146;28;20035;-51
2023/05/03 08:17:41;;;;;;;8.65;4.97;;;;;;;9.50;70.78;102738.31;5095043;28;20475;-52
2023/05/03 08:20:07;;;;;;;8.85;5.32;;;;;;;9.53;71.16;102734.25;5095800;28;20024;-52
2023/05/03 08:22:34;;;;;;;11.75;5.30;;;;;;;9.66;71.87;102746.22;5094886;28;20039;-52
2023/05/03 08:25:00;;;;;;;8.30;5.47;;;;;;;9.72;71.27;102735.41;5095321;28;20027;-51
2023/05/03 08:27:27;;;;;;;7.45;5.07;;;;;;;9.86;71.09;102738.88;5095245;28;20109;-52
2023/05/03 08:29:52;;;;;;;10.88;5.22;;;;;;;10.07;68.33;102739.34;5094849;28;20028;-52
2023/05/03 08:32:19;;;;;;;11.65;5.03;;;;;;;9.99;66.38;102737.97;5095125;28;20028;-52
2023/05/03 08:34:44;;;;;;;9.70;4.80;;;;;;;10.19;67.21;102736.63;5095303;28;20364;-52
2023/05/03 08:37:10;;;;;;;8.63;4.72;;;;;;;10.41;66.99;102728.56;5094519;28;20502;-51
2023/05/03 08:39:35;;;;;;;8.07;4.80;;;;;;;10.52;67.54;102724.94;5094979;28;20039;-50
2023/05/03 08:42:05;;;;;;;7.45;4.60;;;;;;;10.53;65.95;102725.81;5095349;28;20487;-51
2023/05/03 08:44:35;;;;;;;12.13;4.80;;;;;;;10.60;64.23;102724.47;5094424;28;20024;-52
2023/05/03 08:47:00;;;;;;;8.35;4.63;;;;;;;10.59;64.07;102726.19;5095046;28;20375;-48
2023/05/03 08:49:26;;;;;;;9.88;5.00;;;;;;;10.57;62.39;102721.72;5094686;28;20024;-48
2023/05/03 08:51:54;;;;;;;7.50;4.47;;;;;;;10.65;65.24;102728.22;5094301;28;20042;-50
2023/05/03 08:54:20;;;;;;;9.25;4.15;;;;;;;10.75;63.45;102722.81;5094658;28;20426;-52
2023/05/03 08:56:46;;;;;;;8.60;4.68;;;;;;;10.85;62.71;102729.41;5094380;28;20020;-52
2023/05/03 08:59:12;;;;;;;10.75;4.93;;;;;;;10.94;64.05;102734.22;5094429;28;20479;-53
2023/05/03 09:01:39;;;;;;;9.25;4.80;;;;;;;11.07;63.13;102736.72;5094714;28;20081;-50
2023/05/03 09:04:06;;;;;;;9.63;4.90;;;;;;;11.18;63.63;102738.22;5094400;28;20024;-52
2023/05/03 09:06:32;;;;;;;12.13;4.95;;;;;;;11.29;62.47;102737.97;5094169;28;20020;-52
2023/05/03 09:08:59;;;;;;;8.85;4.70;;;;;;;11.41;60.40;102733.47;5094750;28;20027;-52
2023/05/03 09:11:29;;;;;;;10.88;4.75;;;;;;;11.36;57.64;102742.66;5093867;28;20077;-52
2023/05/03 09:14:11;;;;;;;8.48;4.30;;;;;;;11.37;57.47;102739.28;5094282;28;20032;-50
2023/05/03 09:16:37;;;;;;;8.52;4.43;;;;;;;11.41;57.53;102738.63;5094177;28;20027;-53
2023/05/03 09:19:10;;;;;;;10.32;5.00;;;;;;;11.58;57.09;102733.53;5093720;28;20119;-52
2023/05/03 09:21:36;;;;;;;9.25;4.72;;;;;;;11.86;58.04;102736.84;5094191;28;20032;-52
2023/05/03 09:24:03;;;;;;;7.70;4.22;;;;;;;11.91;57.43;102743.97;5093479;28;20035;-52
2023/05/03 09:26:35;;;;;;;10.20;4.93;;;;;;;12.12;59.15;102734.84;5093207;28;20111;-51
2023/05/03 09:29:01;;;;;;;12.20;4.55;;;;;;;11.91;54.13;102731.03;5094420;28;20277;-53
2023/05/03 09:31:28;;;;;;;10.32;4.63;;;;;;;12.16;55.90;102733.28;5094065;28;20106;-52
2023/05/03 09:33:55;;;;;;;10.25;4.65;;;;;;;12.01;55.16;102729.06;5093511;28;20042;-52
2023/05/03 09:36:21;;;;;;;8.75;4.15;;;;;;;12.36;57.12;102729.16;5093809;28;20476;-51
2023/05/03 09:38:46;;;;;;;9.95;4.40;;;;;;;12.58;55.28;102726.00;5093593;28;20036;-52
2023/05/03 09:41:12;;;;;;;9.55;4.43;;;;;;;12.72;53.86;102729.28;5093931;28;20047;-51
2023/05/03 09:43:51;;;;;;;10.52;4.70;;;;;;;12.62;53.74;102730.50;5093894;28;20101;-51
2023/05/03 09:46:16;;;;;;;9.52;4.70;;;;;;;12.62;52.83;102724.47;5093190;28;20059;-52
2023/05/03 09:48:42;;;;;;;10.18;4.65;;;;;;;13.20;55.57;102715.25;5093554;28;20104;-52
2023/05/03 09:51:09;;;;;;;7.68;4.72;;;;;;;13.75;54.01;102719.59;5093837;28;20032;-52
2023/05/03 09:53:37;;;;;;;7.38;4.53;;;;;;;13.75;50.67;102724.78;5092766;28;20491;-52
2023/05/03 09:56:04;;;;;;;9.48;4.20;;;;;;;14.81;50.18;102703.56;5093500;28;20479;-51
2023/05/03 09:58:31;;;;;;;;;;;;;;;14.68;53.84;102722.06;5093971;28;20085;-53
2023/05/03 10:00:57;;;;;;;9.45;4.43;;;;;;;15.01;45.43;102711.28;5093253;28;19912;-52
2023/05/03 10:03:36;;;;;;;8.90;3.80;;;;;;;15.52;45.48;102712.44;5093229;28;20027;-52
2023/05/03 10:06:04;;;;;;;8.77;3.95;;;;;;;16.37;44.57;102708.72;5093670;28;20028;-52
2023/05/03 10:08:40;;;;;;;8.45;4.20;;;;;;;16.57;43.95;102716.31;5092332;28;20476;-52
2023/05/03 10:11:08;;;;;;;8.13;4.28;;;;;;;17.11;41.53;102708.63;5093680;28;20020;-53
2023/05/03 10:13:34;;;;;;;8.73;3.90;;;;;;;17.73;39.16;102713.13;5093167;28;20039;-52
2023/05/03 10:16:07;;;;;;;12.27;3.92;;;;;;;18.40;38.51;102707.22;5092744;28;20027;-51
2023/05/03 10:18:36;;;;;;;6.97;3.17;;;;;;;19.23;35.36;102714.53;5092918;28;20383;-52
2023/05/03 10:21:08;;;;;;;7.72;3.50;;;;;;;18.91;34.32;102712.06;5093068;28;20069;-51
2023/05/03 10:23:34;;;;;;;7.93;3.55;;;;;;;19.31;35.12;102719.94;5092939;28;20028;-52
2023/05/03 10:26:12;;;;;;;7.82;3.72;;;;;;;19.83;34.20;102720.28;5093202;28;20043;-52
2023/05/03 10:28:37;;;;;;;7.13;3.70;;;;;;;19.79;33.06;102707.03;5092463;28;20036;-51
2023/05/03 10:31:03;;;;;;;7.32;3.53;;;;;;;20.40;33.61;102704.81;5092904;28;20028;-50
2023/05/03 10:33:29;;;;;;;7.15;3.60;;;;;;;20.35;32.44;102703.84;5093078;28;20024;-51
2023/05/03 10:35:55;;;;;;;7.53;3.30;;;;;;;20.22;35.28;102713.19;5092560;28;20052;-52
2023/05/03 10:38:25;;;;;;;6.75;3.20;;;;;;;20.42;32.96;102721.41;5092632;28;20059;-52
2023/05/03 10:40:51;;;;;;;9.15;3.72;;;;;;;19.25;32.45;102725.06;5093079;28;20074;-53
2023/05/03 10:43:31;;;;;;;6.43;3.80;;;;;;;19.52;34.81;102711.72;5091883;28;20047;-51
2023/05/03 10:46:05;;;;;;;7.68;3.78;;;;;;;19.93;33.05;102710.84;5093479;28;20036;-51
2023/05/03 10:48:31;;;;;;;10.25;3.53;;;;;;;19.88;33.35;102710.78;5092865;28;20043;-52
2023/05/03 10:51:17;;;;;;;9.38;3.58;;;;;;;20.52;32.96;102712.88;5092308;28;20020;-54
2023/05/03 10:53:43;;;;;;;7.22;3.03;;;;;;;20.93;30.10;102709.22;5092753;28;20028;-52
2023/05/03 10:56:11;;;;;;;9.57;3.58;;;;;;;20.55;31.20;102709.41;5092398;28;20024;-51
2023/05/03 10:58:44;;;;;;;8.05;3.45;;;;;;;20.61;32.26;102703.44;5092504;28;20119;-52
2023/05/03 11:01:12;;;;;;;6.05;3.65;;;;;;;20.87;30.82;102698.66;5092688;28;20043;-52
2023/05/03 11:03:55;;;;;;;;;;;;;;;21.81;33.90;102712.25;5092480;28;20020;-53
2023/05/03 11:06:32;;;;;;;7.55;3.75;;;;;;;20.95;32.50;102707.50;5092046;28;20007;-53
2023/05/03 11:08:58;;;;;;;8.77;3.85;;;;;;;21.25;31.32;102695.72;5092774;28;20544;-52
2023/05/03 11:11:23;;;;;;;6.75;3.80;;;;;;;20.85;32.40;102695.09;5091812;28;20028;-52
2023/05/03 11:13:52;;;;;;;6.70;3.80;;;;;;;21.31;30.81;102690.56;5092667;28;20051;-53
2023/05/03 11:16:18;;;;;;;7.28;3.63;;;;;;;20.97;31.98;102690.06;5092521;28;20032;-52
2023/05/03 11:18:44;;;;;;;13.05;3.88;;;;;;;21.32;30.53;102692.34;5091881;28;20174;-53
2023/05/03 11:21:10;;;;;;;8.23;3.63;;;;;;;21.99;30.33;102686.22;5092920;28;20069;-50